Terminal Aerodrome Forecast
Issued by NWS Miami, FL

Home | Current Version | Previous Version | Text Only | Print | Product List | Glossary On
Versions: 1 2 3 4 5 6 7 8 9 10 11 12 13 14 15 16 17 18 19 20 21 22 23 24 25 26 27 28 29 30 31 32 33 34 35 36 37 38 39 40 41 42 43 44 45 46 47 48 49 50
000
FTUS42 KMFL 121731
TAFAPF
TAF
KAPF 121731Z 1218/1318 24010KT P6SM VCTS SCT030CB SCT060 BKN080
      TEMPO 1218/1220 2SM +TSRA BR BKN030CB BKN060
     FM130000 07005KT P6SM FEW040 BKN250
     FM130600 07005KT P6SM SCT250
     FM131200 10006KT P6SM SCT250
     FM131700 18007KT P6SM VCTS FEW030CB BKN250=

USA.gov is the U.S. government's official web portal to all federal, state and local government web resources and services.